Time;durP1;ratioP1;P1;durP2;ratioP2;P2;SDS_P1;SDS_P2;PMS_P1;PMS_P2;Temp;Humidity;BMP_temperature;BMP_pressure;BME280_temperature;BME280_humidity;BME280_pressure;Samples;Min_cycle;Max_cycle;Signal;HPM_P1;HPM_P2
2024/02/19 06:38:46;;;;;;;2.22;0.85;;;;;;;;;;5011020;28;20065;-81
2024/02/19 06:41:13;;;;;;;1.48;0.80;;;;;;;;;;4965143;28;20048;-81
2024/02/19 06:43:39;;;;;;;3.85;0.93;;;;;;;;;;4948861;28;20063;-82
2024/02/19 06:46:36;;;;;;;1.38;0.77;;;;;;;;;;4944410;29;20033;-82
2024/02/19 06:49:02;;;;;;;1.70;0.68;;;;;;;;;;4942690;29;20039;-82
2024/02/19 06:51:32;;;;;;;1.05;0.50;;;;;;;;;;4935783;29;20042;-82
2024/02/19 06:54:30;;;;;;;1.17;0.35;;;;;;;;;;4926435;29;20046;-83
2024/02/19 06:57:23;;;;;;;1.58;0.38;;;;;;;;;;4929874;29;20032;-82
2024/02/19 06:59:58;;;;;;;2.78;0.40;;;;;;;;;;4928831;29;20042;-82
2024/02/19 07:02:40;;;;;;;0.93;0.50;;;;;;;;;;4943194;29;20051;-81
2024/02/19 07:05:42;;;;;;;1.35;0.55;;;;;;;;;;4940543;29;20043;-83
2024/02/19 07:08:31;;;;;;;1.73;0.60;;;;;;;;;;4928499;29;20047;-82
2024/02/19 07:11:18;;;;;;;2.00;0.90;;;;;;;;;;4920475;28;20099;-81
2024/02/19 07:13:51;;;;;;;0.88;0.57;;;;;;;;;;4957824;28;20042;-80
2024/02/19 07:16:22;;;;;;;1.23;0.55;;;;;;;;;;4958320;28;20039;-81
2024/02/19 07:18:49;;;;;;;2.17;0.60;;;;;;;;;;4959292;28;20058;-81
2024/02/19 07:21:17;;;;;;;1.05;0.50;;;;;;;;;;4941842;29;20067;-82
2024/02/19 07:23:55;;;;;;;1.25;0.43;;;;;;;;;;4943798;29;20039;-80
2024/02/19 07:26:45;;;;;;;1.63;0.50;;;;;;;;;;4958927;29;20062;-82
2024/02/19 07:29:11;;;;;;;0.73;0.43;;;;;;;;;;4944468;28;20039;-81
2024/02/19 07:31:42;;;;;;;1.45;0.70;;;;;;;;;;4946584;29;20074;-81
2024/02/19 07:45:52;;;;;;;3.05;1.38;;;;;;;;;;5881128;23;20050;-80
2024/02/19 07:48:22;;;;;;;2.60;1.10;;;;;;;;;;4969420;28;20030;-82
2024/02/19 07:50:51;;;;;;;2.72;1.30;;;;;;;;;;4970278;28;20101;-82
2024/02/19 07:53:34;;;;;;;4.43;1.65;;;;;;;;;;4970834;28;20014;-82
2024/02/19 07:56:13;;;;;;;3.20;1.20;;;;;;;;;;4965235;28;20043;-80
2024/02/19 07:58:40;;;;;;;2.28;1.25;;;;;;;;;;4950332;28;20034;-82
2024/02/19 08:01:16;;;;;;;2.30;1.15;;;;;;;;;;4963821;29;20027;-81
2024/02/19 08:03:49;;;;;;;3.88;1.38;;;;;;;;;;4946183;29;20055;-82
2024/02/19 08:06:42;;;;;;;;;;;;;;;;;;4962931;28;20027;-82
2024/02/19 08:19:14;;;;;;;2.80;0.95;;;;;;;;;;5456648;23;20062;-81
2024/02/19 08:22:01;;;;;;;1.38;0.73;;;;;;;;;;4946575;28;20041;-82
2024/02/19 08:27:42;;;;;;;2.55;1.02;;;;;;;;;;5130488;23;20059;-81
2024/02/19 08:30:52;;;;;;;3.25;1.00;;;;;;;;;;4948225;28;20007;-81
2024/02/19 09:54:51;;;;;;;0.70;0.43;;;;;;;;;;5955254;23;20049;-80
2024/02/19 09:58:29;;;;;;;3.80;1.85;;;;;;;;;;4954524;28;20043;-76
2024/02/19 11:19:29;;;;;;;5.10;2.15;;;;;;;;;;4930932;29;20113;-80
2024/02/19 11:22:08;;;;;;;4.03;1.63;;;;;;;;;;4965692;28;20057;-78
2024/02/19 15:23:28;;;;;;;4.70;0.70;;;;;;;;;;4964946;28;20038;-81
2024/02/19 15:25:56;;;;;;;0.77;0.40;;;;;;;;;;4963795;28;20038;-81
2024/02/19 15:28:25;;;;;;;2.80;1.10;;;;;;;;;;4944160;28;20042;-82
2024/02/19 15:30:51;;;;;;;1.63;0.45;;;;;;;;;;4926226;29;20035;-82
2024/02/19 15:33:17;;;;;;;0.47;0.32;;;;;;;;;;4974939;28;20037;-81
2024/02/19 15:35:45;;;;;;;4.38;0.50;;;;;;;;;;4952184;29;20058;-81
2024/02/19 15:38:11;;;;;;;3.30;0.85;;;;;;;;;;4928748;29;20055;-81
2024/02/19 15:40:41;;;;;;;1.33;0.43;;;;;;;;;;4943633;28;20031;-82
2024/02/19 15:43:07;;;;;;;4.10;0.70;;;;;;;;;;4944373;29;20055;-82
2024/02/19 15:45:35;;;;;;;1.15;0.52;;;;;;;;;;4959536;28;20031;-81
2024/02/19 15:48:05;;;;;;;2.20;1.08;;;;;;;;;;4949974;28;20038;-81
2024/02/19 15:50:32;;;;;;;2.72;0.65;;;;;;;;;;4956387;28;20030;-82
2024/02/19 15:53:02;;;;;;;1.95;0.68;;;;;;;;;;4960241;28;20125;-81
2024/02/19 15:55:28;;;;;;;2.40;0.50;;;;;;;;;;4954271;28;20497;-83
2024/02/19 15:57:54;;;;;;;4.18;0.77;;;;;;;;;;4940567;28;20046;-83
2024/02/19 16:00:24;;;;;;;1.30;0.40;;;;;;;;;;4942494;28;20094;-82
2024/02/19 16:02:51;;;;;;;3.90;0.70;;;;;;;;;;4961743;28;20030;-82
2024/02/19 16:05:20;;;;;;;2.50;0.60;;;;;;;;;;4948883;28;20027;-82
2024/02/19 16:07:48;;;;;;;5.55;0.90;;;;;;;;;;4959999;28;20125;-82
2024/02/19 16:10:18;;;;;;;3.95;0.75;;;;;;;;;;4946295;28;20077;-82
2024/02/19 16:12:49;;;;;;;1.55;0.45;;;;;;;;;;4945412;28;20027;-82
2024/02/19 16:15:15;;;;;;;3.28;1.33;;;;;;;;;;4942525;28;20062;-81
2024/02/19 16:17:42;;;;;;;3.75;0.63;;;;;;;;;;4944802;28;20049;-82
2024/02/19 16:20:12;;;;;;;6.00;0.63;;;;;;;;;;4962710;28;20158;-81
2024/02/19 16:22:40;;;;;;;2.20;0.73;;;;;;;;;;4946018;28;20038;-81
2024/02/19 16:25:08;;;;;;;2.22;0.75;;;;;;;;;;4964890;28;20035;-82
2024/02/19 16:28:05;;;;;;;2.65;0.77;;;;;;;;;;4962288;28;20119;-81
2024/02/19 16:30:38;;;;;;;2.95;0.88;;;;;;;;;;4966427;28;20031;-82
2024/02/19 16:33:05;;;;;;;2.38;0.98;;;;;;;;;;4966483;28;20035;-82
2024/02/19 16:35:32;;;;;;;3.55;1.13;;;;;;;;;;4964158;28;20058;-81
2024/02/19 16:38:02;;;;;;;1.63;0.60;;;;;;;;;;4964005;28;20050;-80
2024/02/19 16:40:30;;;;;;;2.55;0.75;;;;;;;;;;4966163;28;20098;-82
2024/02/19 16:42:56;;;;;;;2.42;0.80;;;;;;;;;;4949959;28;20031;-82
2024/02/19 16:45:23;;;;;;;2.40;0.70;;;;;;;;;;4979952;28;20083;-80
2024/02/19 16:47:49;;;;;;;10.27;3.55;;;;;;;;;;4940277;28;20062;-81
2024/02/19 16:50:15;;;;;;;3.03;1.50;;;;;;;;;;4923929;28;20181;-79
2024/02/19 16:52:41;;;;;;;4.25;0.93;;;;;;;;;;4932070;28;20501;-79
2024/02/19 16:55:07;;;;;;;4.07;1.27;;;;;;;;;;4926858;28;20126;-79
2024/02/19 16:57:34;;;;;;;3.05;1.10;;;;;;;;;;4964717;28;20029;-83
2024/02/19 17:18:14;;;;;;;2.97;1.05;;;;;;;;;;5802187;23;20051;-83
2024/02/19 17:21:40;;;;;;;2.08;1.00;;;;;;;;;;4938535;29;20093;-81
2024/02/19 17:24:46;;;;;;;1.85;0.70;;;;;;;;;;4923283;29;20036;-82
2024/02/19 17:54:22;;;;;;;5.35;1.30;;;;;;;;;;4920833;29;20105;-82
2024/02/19 17:57:33;;;;;;;6.68;1.55;;;;;;;;;;4884242;29;20061;-85
2024/02/19 19:53:22;;;;;;;6.97;2.17;;;;;;;;;;4934296;29;20092;-83
2024/02/19 19:57:34;;;;;;;5.13;2.08;;;;;;;;;;4923205;29;20043;-81
2024/02/19 20:00:37;;;;;;;6.97;2.05;;;;;;;;;;4886013;29;20128;-83
2024/02/19 20:03:36;;;;;;;7.13;2.25;;;;;;;;;;4935624;29;20028;-81
2024/02/19 20:14:44;;;;;;;5.95;1.80;;;;;;;;;;4909420;29;20043;-82
2024/02/19 22:01:10;;;;;;;10.82;3.35;;;;;;;;;;4998179;28;20062;-83
2024/02/19 22:17:59;;;;;;;9.88;4.05;;;;;;;;;;5688706;23;20054;-83
2024/02/19 22:29:30;;;;;;;7.18;2.90;;;;;;;;;;4938489;29;20024;-83
